createdAt,value
2022-12-26T00:01:38.360Z,97.76
2022-12-26T00:04:50.631Z,97.29
2022-12-26T00:06:55.864Z,97.48
2022-12-26T00:09:25.694Z,97.18
2022-12-26T00:11:54.137Z,97.29
2022-12-26T00:14:22.531Z,96.90
2022-12-26T00:16:51.013Z,96.97
2022-12-26T00:19:19.465Z,97.11
2022-12-26T00:21:47.816Z,97.06
2022-12-26T00:24:16.275Z,96.96
2022-12-26T00:26:45.994Z,96.74
2022-12-26T00:29:14.448Z,96.55
2022-12-26T00:31:42.876Z,96.55
2022-12-26T00:34:11.646Z,96.06
2022-12-26T00:36:40.028Z,95.99
2022-12-26T00:39:08.618Z,95.92
2022-12-26T00:41:37.167Z,95.61
2022-12-26T00:44:07.097Z,95.78
2022-12-26T00:46:35.532Z,95.87
2022-12-26T00:49:04.389Z,96.26
2022-12-26T00:51:32.839Z,96.01
2022-12-26T00:54:01.239Z,95.91
2022-12-26T00:56:29.614Z,95.75
2022-12-26T00:58:57.974Z,95.72
2022-12-26T01:01:30.984Z,95.44
2022-12-26T01:04:00.071Z,95.84
2022-12-26T01:06:28.439Z,95.43
2022-12-26T01:08:56.797Z,95.32
2022-12-26T01:11:39.333Z,95.42
2022-12-26T01:14:09.207Z,95.49
2022-12-26T01:16:39.470Z,95.30
2022-12-26T01:19:08.761Z,95.30
2022-12-26T01:21:37.119Z,95.52
2022-12-26T01:24:06.595Z,95.48
2022-12-26T01:26:36.286Z,95.50
2022-12-26T01:29:04.697Z,96.40
2022-12-26T01:31:33.217Z,99.35
2022-12-26T01:34:03.044Z,96.91
2022-12-26T01:36:31.404Z,96.06
2022-12-26T01:38:59.791Z,94.78
2022-12-26T01:41:30.404Z,94.58
2022-12-26T01:44:02.194Z,94.22
2022-12-26T01:46:35.467Z,94.56
2022-12-26T01:49:14.083Z,93.72
2022-12-26T01:51:47.449Z,90.97
2022-12-26T01:54:37.245Z,92.28
2022-12-26T01:57:11.384Z,92.88
2022-12-26T01:59:43.317Z,92.90
2022-12-26T02:02:12.625Z,93.08
2022-12-26T02:05:06.353Z,93.29
2022-12-26T02:07:36.174Z,93.36
2022-12-26T02:10:06.631Z,93.81
2022-12-26T02:12:38.976Z,93.64
2022-12-26T02:15:13.374Z,93.67
2022-12-26T02:17:42.660Z,93.28
2022-12-26T02:20:21.186Z,93.13
2022-12-26T02:23:32.429Z,93.19
2022-12-26T02:26:37.241Z,93.60
2022-12-26T02:29:50.918Z,93.49
2022-12-26T02:32:30.120Z,93.59
2022-12-26T02:35:08.509Z,93.69
2022-12-26T02:37:55.398Z,93.76
2022-12-26T02:40:51.351Z,93.85
2022-12-26T02:43:31.689Z,93.79
2022-12-26T02:46:30.740Z,93.82
2022-12-26T02:49:08.816Z,94.13
2022-12-26T02:52:10.753Z,94.67
2022-12-26T02:55:02.406Z,94.52
2022-12-26T02:57:52.667Z,94.67
2022-12-26T03:00:40.104Z,94.65
2022-12-26T03:03:32.408Z,94.34
2022-12-26T03:06:33.036Z,94.36
2022-12-26T03:09:23.431Z,94.23
2022-12-26T03:12:16.594Z,94.16
2022-12-26T03:14:51.204Z,94.08
2022-12-26T03:17:28.976Z,94.05
2022-12-26T03:20:02.609Z,94.10
2022-12-26T03:22:42.175Z,93.84
2022-12-26T03:25:31.975Z,93.71
2022-12-26T03:28:00.405Z,93.90
2022-12-26T03:30:46.401Z,93.95
2022-12-26T03:33:28.663Z,93.68
2022-12-26T03:35:57.139Z,93.93
2022-12-26T03:38:36.163Z,94.23
2022-12-26T03:41:30.922Z,94.12
2022-12-26T03:44:37.537Z,94.02
2022-12-26T03:47:36.463Z,93.44
2022-12-26T03:50:29.915Z,93.52
2022-12-26T03:53:26.967Z,93.34
2022-12-26T03:56:22.089Z,93.40
2022-12-26T03:59:15.903Z,93.51
2022-12-26T04:02:04.479Z,93.14
2022-12-26T04:04:53.666Z,93.08
2022-12-26T04:07:56.118Z,93.21
2022-12-26T04:10:52.262Z,93.19
2022-12-26T04:13:43.350Z,93.44
2022-12-26T04:16:37.339Z,93.27
2022-12-26T04:19:25.220Z,93.78
2022-12-26T04:22:18.286Z,93.57
2022-12-26T04:25:10.122Z,93.71
2022-12-26T04:27:55.856Z,94.02
2022-12-26T04:30:43.333Z,94.24
2022-12-26T04:33:36.755Z,94.27
2022-12-26T04:36:28.744Z,94.48
2022-12-26T04:39:19.767Z,94.37
2022-12-26T04:42:07.285Z,94.40
2022-12-26T04:44:37.365Z,94.30
2022-12-26T04:47:07.110Z,94.39
2022-12-26T04:50:00.907Z,94.25
2022-12-26T04:52:50.360Z,94.23
2022-12-26T04:55:19.370Z,94.46
2022-12-26T04:57:47.678Z,94.40
2022-12-26T05:00:17.133Z,94.39
2022-12-26T05:03:04.193Z,94.60
2022-12-26T05:06:08.170Z,94.54
2022-12-26T05:08:57.527Z,94.41
2022-12-26T05:11:26.352Z,94.45
2022-12-26T05:13:55.576Z,94.65
2022-12-26T05:16:42.023Z,94.64
2022-12-26T05:19:30.545Z,94.53
2022-12-26T05:22:17.421Z,94.79
2022-12-26T05:25:04.926Z,94.75
2022-12-26T05:27:55.905Z,94.75
2022-12-26T05:30:24.657Z,94.71
2022-12-26T05:33:10.618Z,94.54
2022-12-26T05:35:41.137Z,94.07
2022-12-26T05:38:12.170Z,94.22
2022-12-26T05:40:40.658Z,93.42
2022-12-26T05:43:09.010Z,93.32
2022-12-26T05:45:37.366Z,93.29
2022-12-26T05:48:06.270Z,93.31
2022-12-26T05:50:34.783Z,93.24
2022-12-26T05:53:05.044Z,93.11
2022-12-26T05:55:33.439Z,93.03
2022-12-26T05:58:02.526Z,92.82
2022-12-26T06:00:31.819Z,92.83
2022-12-26T06:03:02.160Z,92.68
2022-12-26T06:05:30.754Z,92.68
2022-12-26T06:07:59.127Z,92.71
2022-12-26T06:10:29.813Z,92.85
2022-12-26T06:12:58.289Z,92.92
2022-12-26T06:15:26.629Z,92.74
2022-12-26T06:17:56.645Z,92.66
2022-12-26T06:20:25.036Z,92.70
2022-12-26T06:22:53.407Z,92.64
2022-12-26T06:25:21.838Z,92.35
2022-12-26T06:27:51.575Z,92.60
2022-12-26T06:30:19.999Z,92.53
2022-12-26T06:32:48.380Z,92.69
2022-12-26T06:35:16.960Z,92.55
2022-12-26T06:37:45.463Z,92.64
2022-12-26T06:40:14.741Z,92.76
2022-12-26T06:42:43.166Z,92.77
2022-12-26T06:45:13.308Z,92.83
2022-12-26T06:47:41.691Z,92.73
2022-12-26T06:50:11.039Z,92.81
2022-12-26T06:52:39.512Z,92.73
2022-12-26T06:55:08.786Z,92.94
2022-12-26T06:57:37.194Z,92.64
2022-12-26T07:00:06.852Z,92.86
2022-12-26T07:02:36.643Z,92.72
2022-12-26T07:05:06.441Z,92.65
2022-12-26T07:07:34.780Z,92.66
2022-12-26T07:10:03.239Z,92.67
2022-12-26T07:12:31.568Z,92.82
2022-12-26T07:15:01.951Z,92.82
2022-12-26T07:17:30.555Z,92.83
2022-12-26T07:20:00.314Z,93.13
2022-12-26T07:22:29.637Z,93.51
2022-12-26T07:24:58.140Z,93.73
2022-12-26T07:27:26.707Z,93.54
2022-12-26T07:29:55.071Z,93.73
2022-12-26T07:32:23.497Z,93.77
2022-12-26T07:34:51.872Z,94.34
2022-12-26T07:37:21.546Z,94.07
2022-12-26T07:39:53.788Z,94.21
2022-12-26T07:42:26.937Z,95.61
2022-12-26T07:44:55.381Z,97.10
2022-12-26T07:47:23.711Z,98.80
2022-12-26T07:49:52.161Z,100.00
2022-12-26T07:52:23.127Z,100.00
2022-12-26T07:54:51.453Z,100.00
2022-12-26T07:57:47.532Z,100.00
2022-12-26T08:00:10.434Z,100.00
2022-12-26T08:02:42.915Z,100.00
2022-12-26T08:05:11.607Z,100.00
2022-12-26T08:07:41.300Z,100.00
2022-12-26T08:10:10.523Z,100.00
2022-12-26T08:12:39.768Z,100.00
2022-12-26T08:15:10.574Z,100.00
2022-12-26T08:17:38.929Z,100.00
2022-12-26T08:20:08.695Z,100.00
2022-12-26T08:22:37.117Z,100.00
2022-12-26T08:25:08.782Z,100.00
2022-12-26T08:27:37.131Z,100.00
2022-12-26T08:30:06.800Z,100.00
2022-12-26T08:32:36.214Z,100.00
2022-12-26T08:35:08.158Z,100.00
2022-12-26T08:37:36.563Z,100.00
2022-12-26T08:40:07.805Z,100.00
2022-12-26T08:42:44.595Z,100.00
2022-12-26T08:45:25.051Z,100.00
2022-12-26T08:47:56.165Z,100.00
2022-12-26T08:50:24.631Z,100.00
2022-12-26T08:52:53.150Z,100.00
2022-12-26T08:55:22.935Z,100.00
2022-12-26T08:57:51.348Z,100.00
2022-12-26T09:00:23.925Z,100.00
2022-12-26T09:02:53.796Z,100.00
2022-12-26T09:05:22.521Z,100.00
2022-12-26T09:07:50.961Z,100.00
2022-12-26T09:10:19.535Z,100.00
2022-12-26T09:12:49.279Z,100.00
2022-12-26T09:15:17.886Z,100.00
2022-12-26T09:17:46.257Z,100.00
2022-12-26T09:20:14.626Z,100.00
2022-12-26T09:22:51.856Z,100.00
2022-12-26T09:25:22.189Z,100.00
2022-12-26T09:27:58.716Z,100.00
2022-12-26T09:30:27.880Z,100.00
2022-12-26T09:32:56.261Z,100.00
2022-12-26T09:35:24.677Z,100.00
2022-12-26T09:37:53.083Z,100.00
2022-12-26T09:40:33.427Z,100.00
2022-12-26T09:43:25.880Z,100.00
2022-12-26T09:46:07.457Z,100.00
2022-12-26T09:48:41.990Z,100.00
2022-12-26T09:51:11.151Z,100.00
2022-12-26T09:53:44.165Z,100.00
2022-12-26T09:56:36.872Z,100.00
2022-12-26T09:59:17.606Z,100.00
2022-12-26T10:01:48.933Z,100.00
2022-12-26T10:04:28.857Z,100.00
2022-12-26T10:07:24.056Z,100.00
2022-12-26T10:10:09.889Z,100.00
2022-12-26T10:12:47.570Z,100.00
2022-12-26T10:15:32.648Z,100.00
2022-12-26T10:18:21.801Z,100.00
2022-12-26T10:21:11.370Z,100.00
2022-12-26T10:23:43.122Z,100.00
2022-12-26T10:26:17.391Z,100.00
2022-12-26T10:28:50.229Z,100.00
2022-12-26T10:31:26.911Z,100.00
2022-12-26T10:34:01.327Z,100.00
2022-12-26T10:36:36.403Z,100.00
2022-12-26T10:39:07.396Z,100.00
2022-12-26T10:41:41.464Z,100.00
2022-12-26T10:44:12.023Z,100.00
2022-12-26T10:47:23.726Z,100.00
2022-12-26T10:49:52.121Z,100.00
2022-12-26T10:52:32.318Z,100.00
2022-12-26T10:55:29.507Z,100.00
2022-12-26T10:57:54.091Z,100.00
2022-12-26T11:00:26.442Z,100.00
2022-12-26T11:03:08.198Z,100.00
2022-12-26T11:06:06.442Z,100.00
2022-12-26T11:08:36.292Z,100.00
2022-12-26T11:11:14.795Z,100.00
2022-12-26T11:13:49.038Z,100.00
2022-12-26T11:16:27.022Z,100.00
2022-12-26T11:18:57.557Z,100.00
2022-12-26T11:21:28.658Z,100.00
2022-12-26T11:24:19.579Z,100.00
2022-12-26T11:26:48.601Z,100.00
2022-12-26T11:29:20.710Z,100.00
2022-12-26T11:31:55.710Z,100.00
2022-12-26T11:34:34.550Z,100.00
2022-12-26T11:37:05.567Z,100.00
2022-12-26T11:39:37.809Z,99.92
2022-12-26T11:42:12.336Z,100.00
2022-12-26T11:44:45.635Z,99.53
2022-12-26T11:47:17.755Z,99.58
2022-12-26T11:49:59.326Z,99.52
2022-12-26T11:52:40.440Z,100.00
2022-12-26T11:55:31.218Z,100.00
2022-12-26T11:58:06.403Z,100.00
2022-12-26T12:00:37.055Z,99.50
2022-12-26T12:03:12.441Z,99.81
2022-12-26T12:05:53.062Z,100.00
2022-12-26T12:08:41.795Z,100.00
2022-12-26T12:11:29.030Z,100.00
2022-12-26T12:14:11.919Z,100.00
2022-12-26T12:16:53.221Z,100.00
2022-12-26T12:19:49.847Z,100.00
2022-12-26T12:22:41.805Z,100.00
2022-12-26T12:25:32.597Z,100.00
2022-12-26T12:28:17.900Z,100.00
2022-12-26T12:30:54.449Z,100.00
2022-12-26T12:33:42.124Z,100.00
2022-12-26T12:36:13.892Z,100.00
2022-12-26T12:39:03.967Z,100.00
2022-12-26T12:42:14.222Z,100.00
2022-12-26T12:45:03.330Z,98.97
2022-12-26T12:47:46.870Z,99.58
2022-12-26T12:50:25.123Z,97.07
2022-12-26T12:53:04.216Z,99.19
2022-12-26T12:56:10.952Z,100.00
2022-12-26T12:58:47.490Z,100.00
2022-12-26T13:01:22.373Z,100.00
2022-12-26T13:03:58.038Z,100.00
2022-12-26T13:06:35.491Z,100.00
2022-12-26T13:09:11.956Z,100.00
2022-12-26T13:11:46.195Z,100.00
2022-12-26T13:14:21.415Z,100.00
2022-12-26T13:16:57.180Z,100.00
2022-12-26T13:19:28.886Z,100.00
2022-12-26T13:22:03.794Z,100.00
2022-12-26T13:24:36.736Z,100.00
2022-12-26T13:27:15.966Z,100.00
2022-12-26T13:29:47.119Z,100.00
2022-12-26T13:32:22.016Z,100.00
2022-12-26T13:34:52.770Z,100.00
2022-12-26T13:37:58.053Z,100.00
2022-12-26T13:40:31.588Z,98.68
2022-12-26T13:43:26.399Z,97.19
2022-12-26T13:45:58.180Z,96.78
2022-12-26T13:49:06.560Z,96.28
2022-12-26T13:51:53.712Z,96.74
2022-12-26T13:54:25.416Z,97.15
2022-12-26T13:57:29.031Z,97.92
2022-12-26T14:00:19.500Z,98.67
2022-12-26T14:03:41.772Z,98.82
2022-12-26T14:06:51.753Z,99.98
2022-12-26T14:09:40.039Z,100.00
2022-12-26T14:12:50.162Z,100.00
2022-12-26T14:15:30.281Z,100.00
2022-12-26T14:18:23.971Z,100.00
2022-12-26T14:21:10.406Z,100.00
2022-12-26T14:23:46.934Z,100.00
2022-12-26T14:26:33.130Z,100.00
2022-12-26T14:29:12.850Z,100.00
2022-12-26T14:32:04.423Z,100.00
2022-12-26T14:34:55.180Z,100.00
2022-12-26T14:37:35.722Z,100.00
2022-12-26T14:40:25.095Z,100.00
2022-12-26T14:43:15.246Z,100.00
2022-12-26T14:45:50.935Z,100.00
2022-12-26T14:48:50.807Z,100.00
2022-12-26T14:51:47.893Z,100.00
2022-12-26T14:54:39.662Z,100.00
2022-12-26T14:57:54.545Z,100.00
2022-12-26T15:00:37.624Z,100.00
2022-12-26T15:03:45.798Z,100.00
2022-12-26T15:06:57.285Z,100.00
2022-12-26T15:09:59.299Z,100.00
2022-12-26T15:13:23.716Z,100.00
2022-12-26T15:16:24.290Z,100.00
2022-12-26T15:19:24.194Z,100.00
2022-12-26T15:22:51.313Z,100.00
2022-12-26T15:25:44.495Z,100.00
2022-12-26T15:28:54.874Z,100.00
2022-12-26T15:31:37.097Z,100.00
2022-12-26T15:34:26.949Z,100.00
2022-12-26T15:37:02.491Z,97.09
2022-12-26T15:39:48.041Z,96.09
2022-12-26T15:42:36.868Z,92.46
2022-12-26T15:45:28.949Z,92.40
2022-12-26T15:48:05.469Z,93.57
2022-12-26T15:50:49.883Z,93.31
2022-12-26T15:53:30.673Z,94.31
2022-12-26T15:56:59.305Z,94.77
2022-12-26T16:00:07.290Z,93.10
2022-12-26T16:02:49.864Z,93.30
2022-12-26T16:05:51.049Z,92.02
2022-12-26T16:09:09.586Z,91.38
2022-12-26T16:11:54.470Z,92.79
2022-12-26T16:14:32.967Z,93.01
2022-12-26T16:17:22.516Z,93.97
2022-12-26T16:19:54.531Z,94.17
2022-12-26T16:22:46.870Z,95.30
2022-12-26T16:25:19.218Z,94.58
2022-12-26T16:27:51.759Z,94.16
2022-12-26T16:30:24.041Z,94.88
2022-12-26T16:32:53.277Z,95.28
2022-12-26T16:35:25.620Z,95.87
2022-12-26T16:37:57.030Z,97.25
2022-12-26T16:40:30.031Z,97.87
2022-12-26T16:43:03.607Z,98.96
2022-12-26T16:45:36.102Z,100.00
2022-12-26T16:48:08.183Z,100.00
2022-12-26T16:50:46.569Z,100.00
2022-12-26T16:53:18.026Z,100.00
2022-12-26T16:55:49.637Z,100.00
2022-12-26T16:58:27.231Z,100.00
2022-12-26T17:01:05.072Z,100.00
2022-12-26T17:03:48.989Z,100.00
2022-12-26T17:06:24.855Z,100.00
2022-12-26T17:08:54.355Z,100.00
2022-12-26T17:11:30.834Z,100.00
2022-12-26T17:14:02.670Z,100.00
2022-12-26T17:16:33.204Z,100.00
2022-12-26T17:19:16.502Z,100.00
2022-12-26T17:22:10.993Z,100.00
2022-12-26T17:24:39.402Z,100.00
2022-12-26T17:27:18.409Z,100.00
2022-12-26T17:29:57.777Z,100.00
2022-12-26T17:32:37.430Z,100.00
2022-12-26T17:35:12.352Z,100.00
2022-12-26T17:37:41.091Z,100.00
2022-12-26T17:40:24.023Z,100.00
2022-12-26T17:42:55.153Z,100.00
2022-12-26T17:45:27.767Z,100.00
2022-12-26T17:47:58.071Z,100.00
2022-12-26T17:50:32.275Z,100.00
2022-12-26T17:53:06.898Z,100.00
2022-12-26T17:55:35.632Z,100.00
2022-12-26T17:58:03.946Z,100.00
2022-12-26T18:00:34.354Z,100.00
2022-12-26T18:03:02.720Z,100.00
2022-12-26T18:05:31.197Z,100.00
2022-12-26T18:08:00.606Z,100.00
2022-12-26T18:10:33.297Z,100.00
2022-12-26T18:13:02.106Z,100.00
2022-12-26T18:15:33.605Z,100.00
2022-12-26T18:18:01.983Z,100.00
2022-12-26T18:20:31.748Z,99.97
2022-12-26T18:23:00.105Z,99.59
2022-12-26T18:25:28.841Z,98.80
2022-12-26T18:27:57.162Z,99.71
2022-12-26T18:30:27.842Z,99.50
2022-12-26T18:32:57.493Z,99.34
2022-12-26T18:35:25.825Z,99.28
2022-12-26T18:37:55.011Z,98.31
2022-12-26T18:40:33.370Z,99.93
2022-12-26T18:43:02.041Z,100.00
2022-12-26T18:45:31.256Z,100.00
2022-12-26T18:48:01.555Z,100.00
2022-12-26T18:50:31.324Z,100.00
2022-12-26T18:53:00.645Z,100.00
2022-12-26T18:55:29.633Z,100.00
2022-12-26T18:57:58.503Z,100.00
2022-12-26T19:00:27.528Z,100.00
2022-12-26T19:02:56.591Z,99.42
2022-12-26T19:05:30.861Z,98.54
2022-12-26T19:08:00.412Z,97.54
2022-12-26T19:10:31.124Z,95.55
2022-12-26T19:13:05.616Z,95.32
2022-12-26T19:15:36.172Z,95.08
2022-12-26T19:18:05.590Z,94.54
2022-12-26T19:20:40.482Z,95.12
2022-12-26T19:23:12.263Z,94.80
2022-12-26T19:25:40.779Z,95.05
2022-12-26T19:28:09.166Z,93.92
2022-12-26T19:30:39.200Z,93.56
2022-12-26T19:33:07.698Z,94.01
2022-12-26T19:35:37.428Z,93.08
2022-12-26T19:38:05.850Z,93.92
2022-12-26T19:40:34.210Z,94.79
2022-12-26T19:43:02.538Z,94.25
2022-12-26T19:45:30.905Z,94.95
2022-12-26T19:47:59.466Z,94.33
2022-12-26T19:50:27.881Z,93.51
2022-12-26T19:52:57.516Z,94.82
2022-12-26T19:55:25.832Z,94.60
2022-12-26T19:57:54.154Z,94.95
2022-12-26T20:00:22.721Z,94.25
2022-12-26T20:02:51.131Z,94.05
2022-12-26T20:05:19.747Z,94.50
2022-12-26T20:07:48.103Z,93.51
2022-12-26T20:10:17.905Z,93.21
2022-12-26T20:12:46.226Z,94.69
2022-12-26T20:15:14.579Z,94.14
2022-12-26T20:17:42.896Z,94.38
2022-12-26T20:20:11.640Z,92.92
2022-12-26T20:22:40.227Z,93.63
2022-12-26T20:25:10.020Z,94.46
2022-12-26T20:27:40.861Z,93.92
2022-12-26T20:30:10.690Z,94.92
2022-12-26T20:32:39.214Z,93.96
2022-12-26T20:35:08.478Z,93.25
2022-12-26T20:37:36.831Z,91.90
2022-12-26T20:40:06.289Z,91.61
2022-12-26T20:42:34.763Z,91.36
2022-12-26T20:45:04.771Z,91.24
2022-12-26T20:47:33.132Z,90.98
2022-12-26T20:50:01.463Z,92.76
2022-12-26T20:52:29.801Z,91.99
2022-12-26T20:54:58.187Z,92.55
2022-12-26T20:57:26.533Z,93.42
2022-12-26T20:59:54.942Z,92.03
2022-12-26T21:02:24.743Z,91.44
2022-12-26T21:04:53.951Z,86.53
2022-12-26T21:07:22.286Z,84.79
2022-12-26T21:09:50.659Z,82.59
2022-12-26T21:12:19.041Z,82.82
2022-12-26T21:14:47.423Z,79.78
2022-12-26T21:17:18.786Z,78.91
2022-12-26T21:19:48.617Z,79.24
2022-12-26T21:22:17.111Z,78.85
2022-12-26T21:24:45.799Z,78.97
2022-12-26T21:27:14.153Z,77.88
2022-12-26T21:29:43.188Z,77.55
2022-12-26T21:32:11.541Z,76.81
2022-12-26T21:34:40.021Z,75.55
2022-12-26T21:37:27.180Z,74.37
2022-12-26T21:39:58.391Z,74.15
2022-12-26T21:42:26.834Z,73.85
2022-12-26T21:44:55.199Z,74.61
2022-12-26T21:47:23.608Z,73.33
2022-12-26T21:49:52.053Z,71.60
2022-12-26T21:52:21.869Z,71.64
2022-12-26T21:55:07.749Z,72.17
2022-12-26T21:57:36.279Z,72.62
2022-12-26T22:00:05.930Z,70.43
2022-12-26T22:02:55.189Z,71.17
2022-12-26T22:05:25.732Z,71.16
2022-12-26T22:07:57.555Z,70.38
2022-12-26T22:10:45.126Z,70.42
2022-12-26T22:13:13.607Z,70.41
2022-12-26T22:16:05.376Z,70.59
2022-12-26T22:18:37.251Z,70.85
2022-12-26T22:21:09.344Z,72.79
2022-12-26T22:23:40.108Z,71.43
2022-12-26T22:26:10.873Z,73.06
2022-12-26T22:28:40.172Z,74.44
2022-12-26T22:31:09.331Z,73.76
2022-12-26T22:33:37.701Z,74.89
2022-12-26T22:36:08.025Z,73.29
2022-12-26T22:38:38.748Z,74.43
2022-12-26T22:41:07.608Z,73.60
2022-12-26T22:43:37.422Z,73.68
2022-12-26T22:46:06.117Z,73.05
2022-12-26T22:48:34.490Z,71.86
2022-12-26T22:51:02.834Z,71.50
2022-12-26T22:53:32.058Z,71.08
2022-12-26T22:56:04.706Z,71.23
2022-12-26T22:58:34.632Z,71.64
2022-12-26T23:01:03.158Z,69.12
2022-12-26T23:03:31.496Z,69.28
2022-12-26T23:06:00.494Z,69.57
2022-12-26T23:08:29.899Z,70.17
2022-12-26T23:11:01.880Z,69.16
2022-12-26T23:13:30.788Z,68.18
2022-12-26T23:16:10.666Z,69.52
2022-12-26T23:19:01.621Z,68.78
2022-12-26T23:21:40.368Z,70.11
2022-12-26T23:24:12.763Z,69.36
2022-12-26T23:26:47.206Z,69.08
2022-12-26T23:29:36.901Z,70.19
2022-12-26T23:32:06.725Z,70.30
2022-12-26T23:34:35.998Z,71.86
2022-12-26T23:37:05.422Z,71.98
2022-12-26T23:39:33.723Z,72.28
2022-12-26T23:42:03.476Z,71.88
2022-12-26T23:44:32.915Z,71.13
2022-12-26T23:47:01.364Z,71.28
2022-12-26T23:49:29.837Z,72.93
2022-12-26T23:51:58.291Z,76.37
2022-12-26T23:54:27.001Z,75.25
2022-12-26T23:56:55.462Z,75.99
2022-12-26T23:59:25.590Z,76.47
